Terminal Aerodrome Forecast
Issued by NWS

Home | Current Version | Previous Version | Text Only | Print | Product List | Glossary On
Versions: 1 2 3 4 5 6 7 8 9 10 11 12 13 14 15 16
150
FTUS43 KSGF 191725 AAA
TAFJLN
TAF AMD
KJLN 191725Z 1917/2018 VRB05KT P6SM SKC
     FM192000 24008KT P6SM SKC
     FM192300 21007KT P6SM SKC
     FM200200 18006KT P6SM SKC
     FM201300 20009G16KT P6SM SKC
     FM201500 20011G24KT P6SM SKC=

USA.gov is the U.S. government's official web portal to all federal, state and local government web resources and services.